createdAt,value
2018-08-07T00:00:21.284Z,3.23
2018-08-07T00:03:02.235Z,3.23
2018-08-07T00:05:42.989Z,3.27
2018-08-07T00:08:23.540Z,3.10
2018-08-07T00:11:04.079Z,3.23
2018-08-07T00:13:44.577Z,3.60
2018-08-07T00:16:25.122Z,3.10
2018-08-07T00:19:05.501Z,2.70
2018-08-07T00:21:45.859Z,2.60
2018-08-07T00:24:26.741Z,3.00
2018-08-07T00:27:07.613Z,3.10
2018-08-07T00:29:48.249Z,2.63
2018-08-07T00:32:28.771Z,2.90
2018-08-07T00:35:13.709Z,3.30
2018-08-07T00:37:54.707Z,2.73
2018-08-07T00:40:35.392Z,2.63
2018-08-07T00:43:16.190Z,2.40
2018-08-07T00:45:56.706Z,2.20
2018-08-07T00:48:37.466Z,2.33
2018-08-07T00:51:17.678Z,2.67
2018-08-07T00:53:58.057Z,2.67
2018-08-07T00:56:38.566Z,2.33
2018-08-07T00:59:19.429Z,2.23
2018-08-07T01:02:00.486Z,2.50
2018-08-07T01:04:41.085Z,2.30
2018-08-07T01:07:21.876Z,2.43
2018-08-07T01:10:02.713Z,2.30
2018-08-07T01:12:43.384Z,2.40
2018-08-07T01:15:23.907Z,2.40
2018-08-07T01:18:04.784Z,2.30
2018-08-07T01:20:45.288Z,2.03
2018-08-07T01:23:25.772Z,2.57
2018-08-07T01:26:06.660Z,2.50
2018-08-07T01:28:47.313Z,2.30
2018-08-07T01:31:27.709Z,1.90
2018-08-07T01:34:08.582Z,2.10
2018-08-07T01:36:48.922Z,2.40
2018-08-07T01:39:29.533Z,2.20
2018-08-07T01:42:09.946Z,2.33
2018-08-07T01:44:50.521Z,2.07
2018-08-07T01:47:31.701Z,2.20
2018-08-07T01:50:14.108Z,2.00
2018-08-07T01:52:55.085Z,2.30
2018-08-07T01:55:37.217Z,1.90
2018-08-07T01:58:18.142Z,2.27
2018-08-07T02:00:58.739Z,2.67
2018-08-07T02:03:39.285Z,2.30
2018-08-07T02:06:20.201Z,2.10
2018-08-07T02:09:00.992Z,2.30
2018-08-07T02:11:41.831Z,1.80
2018-08-07T02:14:23.145Z,1.90
2018-08-07T02:17:04.286Z,1.90
2018-08-07T02:19:45.132Z,2.20
2018-08-07T02:22:25.800Z,2.03
2018-08-07T02:25:09.846Z,1.90
2018-08-07T02:27:50.693Z,2.07
2018-08-07T02:30:31.446Z,2.00
2018-08-07T02:33:11.858Z,1.93
2018-08-07T02:35:52.778Z,2.10
2018-08-07T02:38:33.162Z,1.80
2018-08-07T02:41:14.063Z,1.80
2018-08-07T02:43:55.060Z,2.07
2018-08-07T02:46:36.227Z,1.70
2018-08-07T02:49:16.997Z,1.90
2018-08-07T02:51:57.824Z,1.73
2018-08-07T02:54:39.254Z,2.27
2018-08-07T02:57:19.981Z,2.03
2018-08-07T03:00:01.142Z,2.10
2018-08-07T03:02:41.504Z,1.70
2018-08-07T03:05:22.250Z,1.80
2018-08-07T03:08:03.193Z,1.77
2018-08-07T03:10:43.668Z,2.13
2018-08-07T03:13:24.534Z,1.97
2018-08-07T03:16:05.063Z,2.20
2018-08-07T03:18:46.260Z,2.17
2018-08-07T03:21:26.722Z,1.90
2018-08-07T03:24:13.567Z,2.27
2018-08-07T03:26:54.099Z,1.80
2018-08-07T03:29:35.171Z,2.00
2018-08-07T03:32:16.316Z,1.87
2018-08-07T03:34:57.020Z,2.30
2018-08-07T03:37:38.599Z,2.20
2018-08-07T03:40:19.953Z,2.20
2018-08-07T03:43:00.665Z,2.20
2018-08-07T03:45:41.490Z,2.10
2018-08-07T03:48:22.424Z,2.40
2018-08-07T03:51:03.021Z,2.20
2018-08-07T03:53:43.932Z,2.30
2018-08-07T03:56:24.695Z,2.27
2018-08-07T03:59:05.623Z,2.37
2018-08-07T04:01:46.609Z,2.10
2018-08-07T04:04:27.314Z,2.30
2018-08-07T04:07:08.196Z,2.00
2018-08-07T04:09:48.788Z,2.13
2018-08-07T04:12:30.011Z,2.60
2018-08-07T04:15:16.410Z,2.20
2018-08-07T04:17:57.599Z,2.20
2018-08-07T04:20:38.387Z,2.30
2018-08-07T04:23:18.856Z,2.40
2018-08-07T04:25:59.743Z,2.30
2018-08-07T04:28:40.661Z,2.27
2018-08-07T04:31:22.106Z,2.73
2018-08-07T04:34:02.536Z,2.20
2018-08-07T04:36:43.069Z,2.50
2018-08-07T04:39:23.959Z,2.33
2018-08-07T04:42:04.511Z,2.30
2018-08-07T04:44:45.174Z,2.30
2018-08-07T04:47:26.030Z,2.40
2018-08-07T04:50:07.387Z,2.20
2018-08-07T04:52:47.749Z,2.50
2018-08-07T04:55:28.552Z,2.40
2018-08-07T04:58:09.863Z,2.37
2018-08-07T05:00:50.681Z,2.57
2018-08-07T05:03:31.219Z,2.97
2018-08-07T05:06:11.695Z,2.77
2018-08-07T05:08:52.248Z,2.67
2018-08-07T05:11:32.716Z,1.97
2018-08-07T05:14:13.999Z,2.20
2018-08-07T05:16:54.755Z,2.20
2018-08-07T05:19:35.842Z,2.47
2018-08-07T05:22:16.327Z,2.30
2018-08-07T05:24:57.138Z,2.10
2018-08-07T05:27:38.289Z,2.53
2018-08-07T05:30:19.145Z,2.03
2018-08-07T05:32:59.578Z,2.10
2018-08-07T05:35:40.718Z,2.00
2018-08-07T05:38:21.150Z,1.97
2018-08-07T05:41:01.666Z,2.80
2018-08-07T05:43:42.458Z,2.37
2018-08-07T05:46:22.971Z,2.53
2018-08-07T05:49:03.875Z,2.03
2018-08-07T05:51:45.312Z,2.23
2018-08-07T05:54:26.065Z,2.30
2018-08-07T05:57:06.476Z,1.97
2018-08-07T05:59:46.900Z,2.13
2018-08-07T06:02:27.352Z,1.90
2018-08-07T06:05:08.758Z,2.03
2018-08-07T06:07:49.540Z,2.40
2018-08-07T06:10:29.917Z,2.03
2018-08-07T06:13:11.129Z,1.90
2018-08-07T06:15:51.553Z,2.10
2018-08-07T06:18:32.360Z,2.10
2018-08-07T06:21:13.243Z,2.17
2018-08-07T06:23:53.834Z,2.20
2018-08-07T06:26:34.555Z,2.20
2018-08-07T06:29:15.285Z,2.07
2018-08-07T06:31:56.052Z,2.20
2018-08-07T06:34:36.808Z,2.40
2018-08-07T06:37:17.854Z,2.30
2018-08-07T06:39:58.621Z,2.30
2018-08-07T06:42:39.369Z,2.23
2018-08-07T06:45:20.074Z,1.93
2018-08-07T06:48:00.488Z,2.20
2018-08-07T06:50:41.201Z,2.07
2018-08-07T06:53:21.983Z,2.10
2018-08-07T06:56:02.814Z,2.43
2018-08-07T06:58:43.574Z,1.90
2018-08-07T07:01:24.050Z,2.40
2018-08-07T07:04:04.591Z,2.00
2018-08-07T07:06:45.449Z,2.27
2018-08-07T07:09:26.227Z,2.40
2018-08-07T07:12:07.738Z,2.00
2018-08-07T07:14:48.620Z,2.20
2018-08-07T07:17:29.996Z,1.97
2018-08-07T07:20:13.152Z,2.90
2018-08-07T07:22:54.367Z,2.27
2018-08-07T07:25:35.188Z,2.50
2018-08-07T07:28:15.804Z,1.93
2018-08-07T07:30:56.653Z,2.10
2018-08-07T07:33:37.467Z,2.20
2018-08-07T07:36:17.984Z,2.07
2018-08-07T07:38:59.159Z,2.13
2018-08-07T07:41:40.009Z,2.40
2018-08-07T07:44:21.136Z,2.30
2018-08-07T07:47:02.029Z,1.70
2018-08-07T07:49:42.866Z,2.03
2018-08-07T07:52:23.377Z,2.10
2018-08-07T07:55:03.730Z,2.10
2018-08-07T07:57:44.797Z,2.10
2018-08-07T08:00:27.028Z,2.10
2018-08-07T08:03:08.017Z,3.40
2018-08-07T08:05:48.444Z,1.90
2018-08-07T08:08:29.605Z,2.33
2018-08-07T08:11:10.917Z,2.50
2018-08-07T08:13:51.451Z,1.87
2018-08-07T08:16:32.407Z,2.00
2018-08-07T08:19:13.369Z,2.20
2018-08-07T08:21:53.950Z,1.90
2018-08-07T08:24:35.141Z,1.87
2018-08-07T08:27:15.618Z,2.10
2018-08-07T08:29:56.371Z,1.70
2018-08-07T08:32:37.690Z,2.07
2018-08-07T08:35:19.608Z,1.50
2018-08-07T08:38:00.430Z,1.60
2018-08-07T08:40:40.789Z,1.80
2018-08-07T08:43:22.163Z,1.80
2018-08-07T08:46:02.606Z,2.20
2018-08-07T08:48:43.272Z,2.30
2018-08-07T08:51:24.579Z,1.87
2018-08-07T08:54:05.135Z,1.87
2018-08-07T08:56:45.939Z,1.97
2018-08-07T08:59:26.780Z,1.93
2018-08-07T09:02:07.990Z,1.87
2018-08-07T09:04:48.630Z,1.70
2018-08-07T09:07:30.533Z,1.70
2018-08-07T09:10:30.309Z,1.90
2018-08-07T09:13:11.313Z,1.90
2018-08-07T09:15:51.677Z,1.50
2018-08-07T09:18:32.431Z,2.00
2018-08-07T09:21:13.811Z,1.70
2018-08-07T09:23:54.294Z,1.80
2018-08-07T09:26:34.818Z,1.70
2018-08-07T09:29:15.685Z,1.70
2018-08-07T09:31:57.012Z,1.70
2018-08-07T09:34:37.949Z,2.00
2018-08-07T09:37:18.833Z,1.70
2018-08-07T09:39:59.809Z,1.50
2018-08-07T09:42:41.622Z,1.47
2018-08-07T09:45:26.195Z,1.50
2018-08-07T09:48:12.721Z,1.53
2018-08-07T09:50:53.957Z,1.53
2018-08-07T09:53:34.685Z,1.37
2018-08-07T09:56:15.794Z,1.40
2018-08-07T09:58:57.007Z,1.37
2018-08-07T10:03:44.961Z,1.50
2018-08-07T10:06:25.416Z,1.70
2018-08-07T10:09:08.925Z,1.33
2018-08-07T10:11:49.745Z,1.37
2018-08-07T10:14:31.585Z,1.57
2018-08-07T10:17:13.273Z,1.77
2018-08-07T10:19:54.457Z,1.47
2018-08-07T10:22:34.947Z,1.70
2018-08-07T10:25:17.251Z,1.50
2018-08-07T10:27:57.764Z,1.73
2018-08-07T10:30:38.943Z,1.80
2018-08-07T10:33:19.581Z,1.67
2018-08-07T10:35:59.732Z,1.67
2018-08-07T10:38:40.334Z,1.63
2018-08-07T10:41:21.151Z,1.80
2018-08-07T10:44:02.051Z,1.60
2018-08-07T10:46:43.610Z,1.53
2018-08-07T10:49:24.299Z,1.57
2018-08-07T10:52:04.869Z,1.57
2018-08-07T10:54:45.658Z,1.57
2018-08-07T10:57:26.245Z,1.90
2018-08-07T11:00:15.457Z,1.70
2018-08-07T11:02:56.610Z,1.80
2018-08-07T11:05:37.478Z,1.73
2018-08-07T11:08:18.932Z,1.90
2018-08-07T11:10:59.965Z,1.70
2018-08-07T11:13:40.880Z,1.53
2018-08-07T11:16:22.149Z,1.30
2018-08-07T11:19:02.614Z,1.60
2018-08-07T11:21:44.428Z,1.57
2018-08-07T11:24:25.057Z,1.80
2018-08-07T11:27:05.789Z,1.93
2018-08-07T11:29:46.796Z,1.80
2018-08-07T11:32:27.378Z,1.70
2018-08-07T11:35:07.952Z,1.67
2018-08-07T11:37:50.253Z,1.70
2018-08-07T11:40:30.969Z,1.50
2018-08-07T11:43:11.616Z,1.50
2018-08-07T11:45:52.916Z,1.30
2018-08-07T11:48:33.507Z,1.53
2018-08-07T11:51:14.747Z,2.00
2018-08-07T11:53:56.373Z,1.70
2018-08-07T11:56:36.804Z,1.77
2018-08-07T11:59:20.148Z,1.80
2018-08-07T12:02:01.650Z,1.67
2018-08-07T12:04:44.079Z,1.90
2018-08-07T12:07:24.758Z,2.00
2018-08-07T12:10:07.830Z,1.60
2018-08-07T12:12:48.780Z,1.60
2018-08-07T12:15:29.458Z,1.90
2018-08-07T12:18:10.093Z,1.83
2018-08-07T12:20:51.092Z,1.80
2018-08-07T12:23:31.651Z,1.67
2018-08-07T12:26:12.213Z,1.87
2018-08-07T12:28:52.991Z,1.87
2018-08-07T12:31:33.935Z,1.83
2018-08-07T12:34:14.889Z,1.90
2018-08-07T12:36:55.983Z,1.80
2018-08-07T12:39:37.121Z,1.67
2018-08-07T12:42:17.517Z,2.00
2018-08-07T12:44:58.252Z,1.70
2018-08-07T12:47:39.695Z,1.87
2018-08-07T12:50:20.426Z,2.10
2018-08-07T12:53:00.902Z,1.60
2018-08-07T12:55:41.696Z,1.77
2018-08-07T12:58:22.355Z,1.83
2018-08-07T13:01:03.089Z,2.00
2018-08-07T13:03:44.574Z,2.30
2018-08-07T13:06:25.249Z,1.90
2018-08-07T13:09:10.554Z,2.00
2018-08-07T13:11:51.188Z,1.90
2018-08-07T13:14:31.913Z,1.80
2018-08-07T13:17:12.905Z,1.80
2018-08-07T13:19:54.522Z,2.13
2018-08-07T13:22:35.830Z,2.00
2018-08-07T13:25:19.066Z,2.10
2018-08-07T13:27:59.787Z,1.93
2018-08-07T13:30:40.049Z,2.00
2018-08-07T13:33:20.724Z,2.10
2018-08-07T13:36:01.553Z,2.00
2018-08-07T13:38:42.569Z,1.57
2018-08-07T13:41:23.081Z,2.60
2018-08-07T13:44:03.989Z,2.30
2018-08-07T13:46:44.633Z,2.17
2018-08-07T13:49:25.022Z,2.30
2018-08-07T13:52:05.922Z,2.10
2018-08-07T13:54:46.929Z,1.90
2018-08-07T13:57:27.874Z,2.27
2018-08-07T14:00:29.472Z,1.90
2018-08-07T14:03:10.481Z,2.30
2018-08-07T14:05:58.101Z,2.10
2018-08-07T14:08:38.668Z,2.20
2018-08-07T14:11:19.425Z,2.50
2018-08-07T14:13:59.905Z,2.30
2018-08-07T14:16:41.067Z,2.27
2018-08-07T14:19:21.553Z,2.00
2018-08-07T14:22:02.245Z,1.90
2018-08-07T14:24:42.601Z,2.07
2018-08-07T14:27:23.259Z,2.43
2018-08-07T14:30:04.363Z,2.33
2018-08-07T14:32:44.765Z,2.20
2018-08-07T14:35:25.612Z,2.33
2018-08-07T14:38:06.107Z,2.20
2018-08-07T14:40:46.883Z,2.03
2018-08-07T14:43:27.285Z,2.10
2018-08-07T14:46:08.089Z,2.30
2018-08-07T14:48:49.068Z,2.00
2018-08-07T14:51:30.180Z,2.20
2018-08-07T14:54:11.049Z,2.00
2018-08-07T14:56:51.412Z,1.87
2018-08-07T14:59:32.453Z,2.33
2018-08-07T15:02:13.045Z,2.13
2018-08-07T15:04:53.845Z,2.30
2018-08-07T15:07:34.337Z,2.20
2018-08-07T15:10:18.047Z,2.10
2018-08-07T15:12:58.652Z,2.67
2018-08-07T15:15:39.617Z,2.70
2018-08-07T15:18:20.045Z,2.70
2018-08-07T15:21:00.914Z,2.57
2018-08-07T15:23:41.266Z,2.20
2018-08-07T15:26:21.670Z,2.10
2018-08-07T15:29:02.062Z,2.60
2018-08-07T15:31:43.633Z,2.27
2018-08-07T15:34:24.205Z,2.70
2018-08-07T15:37:04.746Z,3.73
2018-08-07T15:39:45.425Z,2.60
2018-08-07T15:42:26.457Z,2.40
2018-08-07T15:45:07.533Z,2.40
2018-08-07T15:47:48.613Z,2.37
2018-08-07T15:50:29.421Z,2.00
2018-08-07T15:53:09.933Z,2.47
2018-08-07T15:55:50.616Z,2.60
2018-08-07T15:58:31.141Z,2.27
2018-08-07T16:01:11.898Z,2.30
2018-08-07T16:03:53.058Z,2.50
2018-08-07T16:06:34.231Z,2.33
2018-08-07T16:09:14.880Z,2.17
2018-08-07T16:11:56.055Z,1.93
2018-08-07T16:14:36.838Z,2.27
2018-08-07T16:17:17.672Z,2.77
2018-08-07T16:19:58.498Z,2.50
2018-08-07T16:22:40.064Z,2.63
2018-08-07T16:25:21.519Z,2.50
2018-08-07T16:28:02.229Z,2.30
2018-08-07T16:30:42.715Z,2.67
2018-08-07T16:33:22.967Z,2.90
2018-08-07T16:36:04.082Z,2.50
2018-08-07T16:38:44.406Z,2.27
2018-08-07T16:41:25.529Z,2.23
2018-08-07T16:44:06.353Z,2.20
2018-08-07T16:46:47.160Z,2.10
2018-08-07T16:49:27.898Z,2.30
2018-08-07T16:52:08.929Z,2.23
2018-08-07T16:54:49.682Z,2.53
2018-08-07T16:57:30.377Z,2.50
2018-08-07T17:00:12.680Z,2.27
2018-08-07T17:02:53.217Z,2.23
2018-08-07T17:05:34.243Z,2.00
2018-08-07T17:08:14.926Z,2.03
2018-08-07T17:10:55.444Z,2.10
2018-08-07T17:13:35.843Z,3.00
2018-08-07T17:16:16.499Z,2.60
2018-08-07T17:18:58.158Z,2.10
2018-08-07T17:21:39.025Z,2.50
2018-08-07T17:24:20.745Z,2.70
2018-08-07T17:27:01.837Z,2.40
2018-08-07T17:29:42.402Z,2.60
2018-08-07T17:32:23.231Z,2.90
2018-08-07T17:35:03.778Z,3.03
2018-08-07T17:37:44.807Z,2.73
2018-08-07T17:40:30.077Z,3.03
2018-08-07T17:43:12.356Z,3.37
2018-08-07T17:45:52.918Z,2.73
2018-08-07T17:48:33.717Z,2.67
2018-08-07T17:51:14.452Z,3.00
2018-08-07T17:53:58.298Z,2.60
2018-08-07T17:56:38.929Z,2.93
2018-08-07T17:59:19.783Z,3.60
2018-08-07T18:02:00.574Z,3.50
2018-08-07T18:04:41.118Z,3.50
2018-08-07T18:07:21.725Z,3.60
2018-08-07T18:10:02.742Z,3.37
2018-08-07T18:12:43.468Z,4.27
2018-08-07T18:15:24.250Z,4.33
2018-08-07T18:18:05.102Z,4.37
2018-08-07T18:20:45.483Z,4.27
2018-08-07T18:23:26.310Z,3.80
2018-08-07T18:26:06.902Z,3.80
2018-08-07T18:28:47.862Z,4.20
2018-08-07T18:31:28.902Z,3.80
2018-08-07T18:34:09.910Z,3.83
2018-08-07T18:36:50.909Z,4.17
2018-08-07T18:39:31.287Z,3.90
2018-08-07T18:42:12.166Z,3.97
2018-08-07T18:44:52.553Z,4.07
2018-08-07T18:47:33.829Z,4.20
2018-08-07T18:50:17.127Z,4.03
2018-08-07T18:52:58.125Z,3.80
2018-08-07T18:55:39.347Z,3.70
2018-08-07T18:58:20.132Z,3.67
2018-08-07T19:01:01.549Z,3.83
2018-08-07T19:03:42.299Z,5.07
2018-08-07T19:06:23.725Z,4.50
2018-08-07T19:09:07.044Z,4.47
2018-08-07T19:11:48.001Z,4.83
2018-08-07T19:14:28.763Z,4.53
2018-08-07T19:17:10.181Z,4.93
2018-08-07T19:19:51.093Z,5.23
2018-08-07T19:22:32.083Z,4.80
2018-08-07T19:25:13.201Z,4.80
2018-08-07T19:27:54.209Z,5.20
2018-08-07T19:30:35.019Z,5.23
2018-08-07T19:33:15.509Z,5.40
2018-08-07T19:35:56.244Z,5.20
2018-08-07T19:38:37.102Z,5.40
2018-08-07T19:41:17.684Z,5.83
2018-08-07T19:43:58.219Z,5.67
2018-08-07T19:46:39.302Z,5.30
2018-08-07T19:49:20.039Z,5.47
2018-08-07T19:52:00.400Z,5.07
2018-08-07T19:54:41.065Z,5.37
2018-08-07T19:57:21.809Z,5.70
2018-08-07T20:00:02.437Z,5.67
2018-08-07T20:02:44.510Z,5.50
2018-08-07T20:05:25.340Z,5.27
2018-08-07T20:08:06.334Z,5.20
2018-08-07T20:10:47.688Z,4.57
2018-08-07T20:13:29.504Z,4.90
2018-08-07T20:16:11.085Z,4.47
2018-08-07T20:18:52.100Z,4.63
2018-08-07T20:21:32.757Z,4.90
2018-08-07T20:24:13.669Z,5.17
2018-08-07T20:26:54.433Z,5.10
2018-08-07T20:29:35.542Z,5.87
2018-08-07T20:32:16.695Z,4.90
2018-08-07T20:34:57.202Z,4.60
2018-08-07T20:37:38.237Z,5.60
2018-08-07T20:40:22.740Z,5.07
2018-08-07T20:43:04.181Z,5.00
2018-08-07T20:45:45.318Z,5.10
2018-08-07T20:48:26.365Z,5.27
2018-08-07T20:51:06.734Z,5.47
2018-08-07T20:53:47.074Z,5.20
2018-08-07T20:56:28.183Z,5.67
2018-08-07T20:59:09.424Z,5.20
2018-08-07T21:01:50.366Z,5.70
2018-08-07T21:04:31.257Z,5.67
2018-08-07T21:07:11.754Z,6.20
2018-08-07T21:09:52.869Z,5.73
2018-08-07T21:12:33.619Z,6.07
2018-08-07T21:15:14.511Z,5.97
2018-08-07T21:17:55.110Z,5.73
2018-08-07T21:20:36.216Z,6.50
2018-08-07T21:23:16.572Z,5.40
2018-08-07T21:25:57.319Z,6.40
2018-08-07T21:28:38.184Z,6.27
2018-08-07T21:31:19.671Z,6.53
2018-08-07T21:34:00.397Z,6.93
2018-08-07T21:36:41.541Z,6.60
2018-08-07T21:39:22.106Z,6.30
2018-08-07T21:42:02.806Z,6.60
2018-08-07T21:44:44.698Z,6.27
2018-08-07T21:47:25.397Z,6.07
2018-08-07T21:50:09.241Z,6.00
2018-08-07T21:52:50.167Z,5.97
2018-08-07T21:55:31.346Z,6.07
2018-08-07T21:58:12.285Z,6.17
2018-08-07T22:00:53.113Z,5.67
2018-08-07T22:03:33.653Z,6.20
2018-08-07T22:06:15.117Z,7.10
2018-08-07T22:08:56.314Z,7.10
2018-08-07T22:11:36.662Z,8.17
2018-08-07T22:14:17.256Z,7.47
2018-08-07T22:16:57.589Z,8.10
2018-08-07T22:19:38.060Z,7.23
2018-08-07T22:22:18.941Z,8.70
2018-08-07T22:24:59.793Z,8.60
2018-08-07T22:27:40.143Z,8.77
2018-08-07T22:30:22.754Z,9.17
2018-08-07T22:33:04.756Z,7.93
2018-08-07T22:35:45.726Z,7.77
2018-08-07T22:38:26.579Z,7.63
2018-08-07T22:41:07.466Z,9.23
2018-08-07T22:43:47.869Z,8.87
2018-08-07T22:46:29.090Z,8.30
2018-08-07T22:49:10.198Z,8.77
2018-08-07T22:51:51.446Z,8.20
2018-08-07T22:54:32.149Z,9.50
2018-08-07T22:57:12.898Z,9.33
2018-08-07T22:59:53.845Z,9.93
2018-08-07T23:02:34.384Z,10.87
2018-08-07T23:05:16.684Z,12.17
2018-08-07T23:07:57.993Z,11.37
2018-08-07T23:10:38.503Z,11.33
2018-08-07T23:13:19.429Z,12.23
2018-08-07T23:15:59.775Z,12.50
2018-08-07T23:18:40.562Z,12.87
2018-08-07T23:21:21.811Z,12.17
2018-08-07T23:24:02.407Z,11.43
2018-08-07T23:26:42.874Z,11.37
2018-08-07T23:29:23.591Z,10.97
2018-08-07T23:32:04.141Z,10.83
2018-08-07T23:34:44.509Z,10.67
2018-08-07T23:37:25.007Z,10.40
2018-08-07T23:40:08.068Z,9.20
2018-08-07T23:42:48.527Z,9.90
2018-08-07T23:45:29.256Z,9.37
2018-08-07T23:48:10.611Z,9.40
2018-08-07T23:50:51.762Z,8.83
2018-08-07T23:53:32.601Z,8.37
2018-08-07T23:56:48.478Z,8.97
2018-08-07T23:59:29.353Z,7.83
